createdAt,value
2024-02-29T00:01:08.897Z,13.27
2024-02-29T00:03:36.000Z,10.57
2024-02-29T00:06:03.034Z,13.73
2024-02-29T00:08:30.098Z,13.63
2024-02-29T00:10:57.097Z,12.55
2024-02-29T00:13:24.254Z,11.35
2024-02-29T00:15:51.350Z,13.18
2024-02-29T00:18:18.393Z,13.60
2024-02-29T00:20:45.366Z,11.98
2024-02-29T00:23:12.349Z,11.95
2024-02-29T00:25:39.369Z,12.55
2024-02-29T00:28:06.541Z,12.43
2024-02-29T00:30:33.640Z,12.18
2024-02-29T00:33:01.006Z,11.98
2024-02-29T00:35:28.125Z,12.50
2024-02-29T00:37:55.766Z,11.80
2024-02-29T00:40:22.916Z,11.00
2024-02-29T00:42:50.585Z,11.70
2024-02-29T00:45:17.773Z,12.32
2024-02-29T00:47:44.774Z,12.25
2024-02-29T00:50:12.018Z,12.82
2024-02-29T00:52:39.967Z,13.50
2024-02-29T00:55:08.851Z,12.82
2024-02-29T00:57:36.115Z,12.65
2024-02-29T01:00:03.376Z,12.45
2024-02-29T01:02:30.385Z,11.57
2024-02-29T01:04:57.397Z,12.38
2024-02-29T01:07:24.546Z,13.40
2024-02-29T01:09:51.907Z,12.50
2024-02-29T01:12:19.074Z,11.95
2024-02-29T01:14:46.080Z,12.88
2024-02-29T01:17:13.313Z,12.80
2024-02-29T01:19:40.312Z,12.02
2024-02-29T01:22:07.535Z,13.32
2024-02-29T01:24:34.630Z,12.60
2024-02-29T01:27:01.818Z,13.30
2024-02-29T01:29:29.257Z,11.45
2024-02-29T01:31:56.329Z,11.73
2024-02-29T01:34:23.649Z,11.25
2024-02-29T01:36:50.759Z,14.07
2024-02-29T01:39:17.864Z,13.25
2024-02-29T01:41:47.527Z,11.68
2024-02-29T01:44:14.561Z,12.23
2024-02-29T01:46:41.648Z,12.13
2024-02-29T01:49:09.130Z,12.82
2024-02-29T01:51:36.519Z,13.20
2024-02-29T01:54:03.575Z,11.68
2024-02-29T01:56:30.574Z,12.40
2024-02-29T01:58:59.332Z,12.38
2024-02-29T02:01:26.818Z,12.35
2024-02-29T02:03:53.893Z,11.98
2024-02-29T02:06:21.045Z,12.23
2024-02-29T02:08:48.071Z,12.55
2024-02-29T02:11:15.725Z,11.73
2024-02-29T02:13:42.935Z,11.82
2024-02-29T02:16:10.432Z,12.00
2024-02-29T02:18:37.425Z,12.05
2024-02-29T02:21:05.240Z,12.57
2024-02-29T02:23:32.197Z,12.48
2024-02-29T02:26:01.035Z,12.95
2024-02-29T02:28:28.678Z,11.07
2024-02-29T02:30:55.789Z,11.65
2024-02-29T02:33:22.840Z,11.25
2024-02-29T02:35:50.400Z,12.05
2024-02-29T02:38:17.365Z,12.05
2024-02-29T02:40:44.423Z,11.70
2024-02-29T02:43:11.750Z,11.43
2024-02-29T02:45:38.981Z,11.18
2024-02-29T02:48:06.167Z,11.75
2024-02-29T02:50:33.278Z,11.88
2024-02-29T02:53:00.253Z,11.40
2024-02-29T02:55:27.334Z,12.00
2024-02-29T02:57:54.388Z,10.77
2024-02-29T03:00:21.457Z,10.77
2024-02-29T03:02:48.751Z,11.82
2024-02-29T03:05:16.215Z,11.75
2024-02-29T03:07:43.522Z,11.38
2024-02-29T03:10:10.969Z,11.65
2024-02-29T03:12:39.263Z,11.63
2024-02-29T03:15:06.903Z,11.18
2024-02-29T03:17:33.981Z,12.48
2024-02-29T03:20:01.053Z,11.75
2024-02-29T03:22:28.343Z,11.93
2024-02-29T03:24:57.409Z,12.13
2024-02-29T03:27:24.565Z,10.95
2024-02-29T03:29:51.574Z,11.52
2024-02-29T03:32:19.549Z,12.73
2024-02-29T03:34:46.551Z,13.02
2024-02-29T03:37:15.036Z,12.95
2024-02-29T03:39:42.192Z,12.70
2024-02-29T03:42:09.281Z,12.38
2024-02-29T03:44:36.328Z,12.68
2024-02-29T03:47:03.806Z,11.38
2024-02-29T03:49:30.795Z,12.10
2024-02-29T03:51:57.916Z,11.15
2024-02-29T03:54:25.148Z,11.60
2024-02-29T03:56:52.641Z,11.10
2024-02-29T03:59:19.752Z,12.07
2024-02-29T04:01:52.876Z,11.85
2024-02-29T04:04:20.847Z,11.77
2024-02-29T04:06:48.174Z,11.68
2024-02-29T04:09:15.358Z,11.65
2024-02-29T04:11:42.400Z,12.10
2024-02-29T04:14:10.757Z,11.02
2024-02-29T04:16:38.633Z,11.43
2024-02-29T04:19:06.456Z,10.73
2024-02-29T04:21:35.002Z,10.93
2024-02-29T04:24:02.843Z,11.05
2024-02-29T04:26:30.200Z,10.95
2024-02-29T04:28:57.466Z,12.20
2024-02-29T04:31:24.597Z,11.27
2024-02-29T04:33:52.318Z,11.80
2024-02-29T04:36:19.648Z,13.02
2024-02-29T04:38:47.175Z,11.85
2024-02-29T04:41:14.213Z,10.57
2024-02-29T04:43:41.454Z,11.13
2024-02-29T04:46:09.362Z,11.82
2024-02-29T04:48:36.515Z,12.00
2024-02-29T04:51:06.177Z,11.80
2024-02-29T04:53:33.301Z,11.75
2024-02-29T04:56:01.320Z,11.75
2024-02-29T04:58:28.803Z,11.32
2024-02-29T05:00:56.856Z,12.93
2024-02-29T05:03:25.102Z,11.45
2024-02-29T05:05:52.145Z,12.20
2024-02-29T05:08:19.317Z,11.60
2024-02-29T05:10:46.467Z,12.50
2024-02-29T05:13:13.711Z,14.40
2024-02-29T05:15:41.820Z,11.93
2024-02-29T05:18:08.959Z,13.32
2024-02-29T05:20:36.598Z,11.90
2024-02-29T05:23:03.781Z,12.25
2024-02-29T05:25:30.917Z,12.57
2024-02-29T05:27:58.013Z,12.80
2024-02-29T05:30:26.707Z,13.43
2024-02-29T05:32:53.940Z,13.13
2024-02-29T05:35:23.790Z,13.88
2024-02-29T05:37:50.968Z,12.65
2024-02-29T05:40:18.404Z,13.95
2024-02-29T05:42:45.607Z,13.07
2024-02-29T05:45:13.884Z,17.17
2024-02-29T05:47:41.182Z,17.85
2024-02-29T05:50:09.461Z,19.08
2024-02-29T05:52:37.004Z,18.33
2024-02-29T05:55:04.623Z,18.73
2024-02-29T05:57:33.226Z,19.48
2024-02-29T06:00:01.885Z,19.05
2024-02-29T06:02:37.687Z,20.15
2024-02-29T06:05:06.221Z,19.23
2024-02-29T06:07:34.677Z,19.98
2024-02-29T06:10:04.169Z,19.65
2024-02-29T06:12:31.889Z,18.38
2024-02-29T06:14:59.145Z,18.65
2024-02-29T06:17:26.236Z,20.42
2024-02-29T06:19:53.308Z,19.80
2024-02-29T06:22:20.517Z,19.50
2024-02-29T06:24:47.590Z,20.63
2024-02-29T06:27:14.606Z,21.27
2024-02-29T06:29:41.620Z,21.33
2024-02-29T06:32:08.599Z,23.15
2024-02-29T06:34:35.597Z,17.55
2024-02-29T06:37:02.740Z,18.98
2024-02-29T06:39:29.741Z,18.45
2024-02-29T06:41:57.042Z,17.55
2024-02-29T06:44:24.085Z,17.17
2024-02-29T06:46:51.119Z,18.33
2024-02-29T06:49:21.599Z,18.60
2024-02-29T06:51:48.831Z,16.50
2024-02-29T06:54:15.980Z,17.83
2024-02-29T06:56:43.182Z,17.90
2024-02-29T06:59:10.587Z,15.30
2024-02-29T07:01:38.163Z,15.68
2024-02-29T07:04:05.467Z,14.60
2024-02-29T07:06:32.683Z,14.27
2024-02-29T07:08:59.643Z,14.10
2024-02-29T07:11:27.317Z,12.82
2024-02-29T07:13:54.356Z,13.70
2024-02-29T07:16:21.821Z,11.82
2024-02-29T07:18:49.012Z,11.95
2024-02-29T07:21:16.207Z,12.60
2024-02-29T07:23:43.182Z,13.90
2024-02-29T07:26:11.413Z,13.80
2024-02-29T07:28:38.787Z,13.00
2024-02-29T07:31:07.211Z,13.15
2024-02-29T07:33:36.560Z,12.88
2024-02-29T07:36:03.863Z,12.20
2024-02-29T07:38:30.875Z,10.27
2024-02-29T07:40:58.041Z,11.88
2024-02-29T07:43:25.645Z,11.95
2024-02-29T07:45:53.060Z,11.88
2024-02-29T07:48:20.073Z,11.52
2024-02-29T07:50:47.067Z,11.55
2024-02-29T07:53:14.082Z,10.90
2024-02-29T07:55:41.374Z,10.18
2024-02-29T07:58:08.594Z,11.63
2024-02-29T08:00:37.405Z,11.30
2024-02-29T08:03:05.483Z,11.30
2024-02-29T08:05:33.678Z,12.38
2024-02-29T08:08:00.688Z,10.68
2024-02-29T08:10:27.809Z,10.45
2024-02-29T08:12:54.908Z,20.48
2024-02-29T08:15:22.114Z,10.30
2024-02-29T08:17:49.540Z,8.50
2024-02-29T08:20:17.417Z,7.68
2024-02-29T08:22:44.477Z,7.70
2024-02-29T08:25:11.825Z,6.72
2024-02-29T08:27:38.964Z,8.63
2024-02-29T08:30:06.512Z,7.88
2024-02-29T08:32:33.665Z,7.70
2024-02-29T08:35:00.633Z,7.43
2024-02-29T08:37:27.633Z,8.32
2024-02-29T08:39:54.827Z,8.60
2024-02-29T08:42:21.824Z,8.35
2024-02-29T08:44:50.047Z,8.02
2024-02-29T08:47:17.346Z,8.25
2024-02-29T08:49:44.444Z,9.20
2024-02-29T08:52:11.466Z,8.80
2024-02-29T08:54:38.696Z,11.48
2024-02-29T08:57:06.243Z,10.40
2024-02-29T08:59:34.255Z,9.27
2024-02-29T09:02:04.379Z,7.68
2024-02-29T09:04:31.930Z,6.82
2024-02-29T09:06:59.152Z,12.52
2024-02-29T09:09:26.378Z,11.77
2024-02-29T09:11:53.389Z,6.78
2024-02-29T09:14:21.292Z,7.13
2024-02-29T09:16:48.533Z,6.93
2024-02-29T09:19:15.594Z,7.07
2024-02-29T09:21:43.703Z,5.85
2024-02-29T09:24:13.968Z,7.13
2024-02-29T09:26:42.873Z,6.30
2024-02-29T09:29:10.159Z,8.20
2024-02-29T09:31:37.348Z,11.88
2024-02-29T09:34:04.876Z,6.57
2024-02-29T09:36:32.990Z,7.32
2024-02-29T09:39:00.083Z,7.28
2024-02-29T09:41:41.449Z,6.70
2024-02-29T09:44:16.511Z,7.97
2024-02-29T09:46:48.101Z,6.90
2024-02-29T09:49:15.596Z,7.38
2024-02-29T09:51:42.849Z,7.75
2024-02-29T09:54:13.463Z,7.78
2024-02-29T09:56:41.023Z,6.78
2024-02-29T09:59:08.117Z,6.88
2024-02-29T10:01:35.221Z,8.10
2024-02-29T10:04:04.641Z,8.07
2024-02-29T10:06:31.727Z,8.10
2024-02-29T10:08:58.688Z,6.63
2024-02-29T10:11:29.580Z,7.57
2024-02-29T10:13:58.471Z,7.28
2024-02-29T10:16:28.287Z,7.60
2024-02-29T10:18:55.941Z,7.60
2024-02-29T10:21:22.947Z,8.35
2024-02-29T10:23:50.273Z,8.75
2024-02-29T10:26:17.272Z,7.25
2024-02-29T10:28:44.380Z,8.20
2024-02-29T10:31:11.447Z,7.00
2024-02-29T10:33:40.004Z,7.22
2024-02-29T10:36:11.670Z,6.57
2024-02-29T10:38:39.005Z,6.93
2024-02-29T10:41:08.549Z,7.90
2024-02-29T10:43:35.690Z,6.57
2024-02-29T10:46:05.260Z,6.90
2024-02-29T10:48:32.570Z,7.28
2024-02-29T10:51:09.987Z,7.28
2024-02-29T10:53:43.791Z,6.18
2024-02-29T10:56:22.341Z,17.95
2024-02-29T10:58:52.331Z,10.10
2024-02-29T11:01:19.470Z,8.63
2024-02-29T11:03:47.198Z,9.20
2024-02-29T11:06:14.635Z,7.07
2024-02-29T11:08:41.987Z,12.13
2024-02-29T11:11:16.402Z,7.22
2024-02-29T11:13:43.592Z,8.90
2024-02-29T11:16:12.368Z,10.50
2024-02-29T11:18:39.683Z,7.43
2024-02-29T11:21:07.316Z,7.70
2024-02-29T11:23:35.602Z,7.10
2024-02-29T11:26:03.261Z,7.63
2024-02-29T11:28:34.503Z,8.02
2024-02-29T11:33:33.459Z,9.93
2024-02-29T11:36:00.728Z,10.75
2024-02-29T11:38:32.764Z,8.50
2024-02-29T11:41:04.027Z,8.48
2024-02-29T11:43:31.120Z,8.90
2024-02-29T11:46:07.102Z,8.77
2024-02-29T11:48:35.534Z,10.48
2024-02-29T11:51:04.260Z,8.18
2024-02-29T11:53:32.202Z,8.75
2024-02-29T11:56:06.993Z,10.98
2024-02-29T11:58:41.875Z,8.10
2024-02-29T12:01:12.981Z,22.90
2024-02-29T12:06:07.381Z,8.40
2024-02-29T12:08:34.489Z,10.10
2024-02-29T12:11:01.625Z,9.57
2024-02-29T12:13:29.252Z,8.10
2024-02-29T12:15:57.199Z,8.68
2024-02-29T12:18:24.428Z,8.68
2024-02-29T12:20:52.838Z,8.00
2024-02-29T12:23:20.749Z,8.10
2024-02-29T12:25:47.963Z,7.40
2024-02-29T12:28:15.249Z,7.95
2024-02-29T12:30:42.689Z,6.68
2024-02-29T12:33:14.442Z,7.50
2024-02-29T12:35:43.822Z,7.53
2024-02-29T12:38:15.203Z,9.23
2024-02-29T12:40:42.639Z,7.50
2024-02-29T12:43:13.613Z,8.98
2024-02-29T12:45:42.120Z,7.88
2024-02-29T12:48:09.283Z,8.43
2024-02-29T12:50:36.853Z,8.68
2024-02-29T12:53:03.964Z,8.32
2024-02-29T12:55:31.110Z,8.73
2024-02-29T12:57:58.416Z,8.05
2024-02-29T13:00:26.166Z,7.55
2024-02-29T13:02:53.946Z,8.02
2024-02-29T13:05:21.031Z,7.50
2024-02-29T13:07:48.114Z,7.78
2024-02-29T13:10:15.633Z,8.18
2024-02-29T13:12:45.353Z,6.78
2024-02-29T13:15:16.451Z,7.95
2024-02-29T13:17:43.539Z,6.85
2024-02-29T13:20:11.425Z,7.53
2024-02-29T13:22:40.147Z,12.25
2024-02-29T13:25:07.646Z,7.45
2024-02-29T13:27:35.449Z,7.60
2024-02-29T13:30:02.578Z,7.53
2024-02-29T13:32:29.632Z,6.97
2024-02-29T13:34:58.127Z,7.50
2024-02-29T13:37:26.067Z,6.85
2024-02-29T13:39:54.366Z,6.97
2024-02-29T13:42:21.444Z,7.40
2024-02-29T13:44:49.209Z,6.65
2024-02-29T13:47:16.567Z,6.97
2024-02-29T13:49:44.646Z,6.88
2024-02-29T13:52:18.240Z,6.95
2024-02-29T13:54:46.312Z,8.20
2024-02-29T13:57:13.897Z,8.02
2024-02-29T13:59:41.022Z,9.30
2024-02-29T14:02:08.141Z,10.25
2024-02-29T14:04:36.358Z,8.55
2024-02-29T14:07:05.271Z,8.90
2024-02-29T14:09:35.603Z,8.88
2024-02-29T14:12:02.837Z,8.00
2024-02-29T14:14:29.942Z,7.90
2024-02-29T14:16:57.201Z,8.82
2024-02-29T14:19:24.424Z,8.15
2024-02-29T14:21:51.628Z,10.20
2024-02-29T14:24:21.736Z,9.02
2024-02-29T14:26:49.252Z,13.38
2024-02-29T14:29:16.663Z,9.65
2024-02-29T14:31:43.747Z,9.63
2024-02-29T14:34:11.044Z,9.35
2024-02-29T14:36:39.728Z,13.43
2024-02-29T14:39:12.880Z,11.07
2024-02-29T14:41:40.179Z,7.93
2024-02-29T14:44:08.174Z,9.70
2024-02-29T14:46:35.259Z,10.65
2024-02-29T14:49:02.362Z,6.10
2024-02-29T14:51:29.777Z,10.00
2024-02-29T14:53:57.599Z,8.05
2024-02-29T14:56:25.303Z,11.25
2024-02-29T14:58:53.361Z,7.07
2024-02-29T15:01:23.624Z,9.05
2024-02-29T15:03:52.962Z,9.27
2024-02-29T15:06:20.158Z,9.23
2024-02-29T15:08:47.297Z,11.23
2024-02-29T15:11:14.625Z,9.45
2024-02-29T15:13:44.700Z,11.95
2024-02-29T15:16:11.969Z,11.85
2024-02-29T15:18:39.144Z,8.25
2024-02-29T15:21:06.360Z,7.82
2024-02-29T15:23:33.445Z,10.13
2024-02-29T15:26:00.577Z,8.05
2024-02-29T15:28:29.872Z,10.07
2024-02-29T15:30:57.073Z,7.57
2024-02-29T15:33:24.914Z,8.85
2024-02-29T15:35:52.024Z,8.02
2024-02-29T15:38:19.291Z,7.05
2024-02-29T15:40:47.908Z,7.32
2024-02-29T15:43:15.774Z,7.68
2024-02-29T15:45:43.121Z,10.95
2024-02-29T15:48:10.324Z,9.13
2024-02-29T15:50:37.477Z,9.75
2024-02-29T15:53:04.680Z,9.52
2024-02-29T15:55:32.095Z,9.80
2024-02-29T15:57:59.865Z,9.98
2024-02-29T16:00:27.033Z,9.57
2024-02-29T16:02:54.088Z,9.27
2024-02-29T16:05:21.517Z,10.32
2024-02-29T16:07:48.611Z,12.43
2024-02-29T16:10:15.693Z,12.45
2024-02-29T16:12:43.120Z,14.60
2024-02-29T16:15:10.521Z,12.82
2024-02-29T16:17:37.653Z,10.18
2024-02-29T16:20:05.154Z,11.98
2024-02-29T16:22:32.188Z,13.27
2024-02-29T16:24:59.284Z,11.63
2024-02-29T16:27:26.496Z,13.77
2024-02-29T16:29:53.760Z,12.10
2024-02-29T16:32:20.777Z,8.70
2024-02-29T16:34:47.825Z,10.63
2024-02-29T16:37:15.004Z,10.98
2024-02-29T16:39:42.127Z,9.77
2024-02-29T16:42:10.673Z,11.95
2024-02-29T16:44:38.128Z,9.05
2024-02-29T16:47:05.653Z,9.18
2024-02-29T16:49:32.769Z,20.00
2024-02-29T16:51:59.841Z,13.13
2024-02-29T16:54:27.048Z,15.82
2024-02-29T16:56:54.322Z,9.32
2024-02-29T16:59:21.462Z,10.85
2024-02-29T17:01:48.590Z,9.13
2024-02-29T17:04:15.700Z,9.50
2024-02-29T17:06:42.876Z,9.70
2024-02-29T17:09:09.984Z,11.88
2024-02-29T17:11:38.105Z,9.88
2024-02-29T17:14:05.304Z,11.70
2024-02-29T17:16:32.456Z,11.38
2024-02-29T17:18:59.637Z,10.85
2024-02-29T17:21:27.944Z,9.48
2024-02-29T17:23:55.198Z,8.88
2024-02-29T17:26:22.206Z,10.15
2024-02-29T17:28:52.881Z,10.63
2024-02-29T17:31:21.173Z,11.18
2024-02-29T17:33:48.659Z,11.52
2024-02-29T17:36:15.798Z,10.57
2024-02-29T17:38:42.829Z,10.75
2024-02-29T17:41:10.149Z,10.48
2024-02-29T17:43:37.178Z,10.55
2024-02-29T17:46:04.319Z,10.38
2024-02-29T17:48:31.292Z,9.90
2024-02-29T17:50:58.590Z,10.48
2024-02-29T17:53:25.673Z,11.65
2024-02-29T17:55:52.761Z,16.13
2024-02-29T17:58:20.318Z,11.60
2024-02-29T18:00:47.445Z,12.35
2024-02-29T18:03:14.664Z,12.90
2024-02-29T18:05:41.766Z,10.70
2024-02-29T18:08:09.438Z,10.70
2024-02-29T18:10:37.809Z,12.35
2024-02-29T18:13:05.266Z,12.48
2024-02-29T18:15:32.321Z,12.20
2024-02-29T18:18:00.214Z,12.23
2024-02-29T18:20:27.980Z,11.43
2024-02-29T18:22:55.329Z,16.08
2024-02-29T18:25:22.535Z,13.07
2024-02-29T18:27:49.805Z,12.93
2024-02-29T18:30:16.999Z,12.27
2024-02-29T18:32:44.170Z,13.38
2024-02-29T18:35:11.619Z,41.85
2024-02-29T18:37:41.434Z,12.20
2024-02-29T18:40:12.480Z,12.18
2024-02-29T18:45:07.886Z,13.60
2024-02-29T18:47:37.955Z,12.13
2024-02-29T18:50:06.142Z,11.98
2024-02-29T18:52:33.235Z,12.07
2024-02-29T18:55:00.424Z,11.65
2024-02-29T18:57:27.463Z,14.23
2024-02-29T18:59:54.877Z,12.13
2024-02-29T19:02:22.026Z,11.38
2024-02-29T19:04:52.622Z,12.30
2024-02-29T19:07:19.958Z,13.40
2024-02-29T19:09:47.216Z,13.02
2024-02-29T19:12:14.416Z,19.92
2024-02-29T19:14:41.688Z,12.25
2024-02-29T19:17:08.828Z,14.75
2024-02-29T19:19:35.864Z,11.00
2024-02-29T19:22:05.124Z,25.13
2024-02-29T19:24:32.247Z,13.07
2024-02-29T19:26:59.379Z,14.70
2024-02-29T19:29:26.514Z,13.50
2024-02-29T19:31:55.020Z,12.18
2024-02-29T19:34:22.224Z,12.93
2024-02-29T19:36:52.109Z,17.60
2024-02-29T19:39:19.361Z,10.80
2024-02-29T19:41:46.387Z,12.43
2024-02-29T19:44:13.708Z,12.13
2024-02-29T19:46:49.835Z,12.82
2024-02-29T19:49:19.082Z,11.98
2024-02-29T19:51:46.335Z,10.52
2024-02-29T19:54:13.488Z,11.40
2024-02-29T19:56:41.043Z,13.65
2024-02-29T19:59:10.241Z,15.30
2024-02-29T20:01:38.456Z,10.63
2024-02-29T20:04:05.760Z,10.80
2024-02-29T20:06:34.306Z,11.18
2024-02-29T20:09:01.401Z,10.00
2024-02-29T20:11:28.541Z,10.75
2024-02-29T20:13:55.782Z,11.07
2024-02-29T20:16:23.122Z,10.90
2024-02-29T20:18:50.267Z,12.50
2024-02-29T20:21:17.389Z,15.93
2024-02-29T20:23:45.189Z,13.18
2024-02-29T20:26:17.315Z,13.00
2024-02-29T20:28:44.425Z,11.52
2024-02-29T20:31:11.754Z,11.93
2024-02-29T20:33:40.692Z,12.77
2024-02-29T20:36:07.986Z,11.43
2024-02-29T20:38:35.802Z,11.73
2024-02-29T20:41:04.656Z,10.85
2024-02-29T20:43:31.948Z,11.40
2024-02-29T20:45:58.939Z,12.13
2024-02-29T20:48:26.137Z,12.20
2024-02-29T20:50:53.243Z,29.52
2024-02-29T20:53:20.282Z,10.82
2024-02-29T20:55:47.261Z,9.15
2024-02-29T20:58:15.892Z,9.82
2024-02-29T21:00:43.249Z,8.68
2024-02-29T21:03:10.629Z,7.47
2024-02-29T21:05:37.798Z,7.40
2024-02-29T21:08:04.990Z,7.15
2024-02-29T21:10:32.034Z,7.40
2024-02-29T21:13:00.795Z,7.22
2024-02-29T21:15:29.601Z,7.25
2024-02-29T21:17:56.722Z,7.47
2024-02-29T21:20:25.182Z,6.18
2024-02-29T21:22:52.304Z,5.90
2024-02-29T21:25:19.489Z,6.30
2024-02-29T21:27:47.321Z,6.13
2024-02-29T21:30:14.506Z,8.60
2024-02-29T21:32:41.706Z,11.43
2024-02-29T21:35:10.119Z,7.47
2024-02-29T21:37:37.300Z,13.30
2024-02-29T21:40:05.462Z,10.52
2024-02-29T21:42:32.555Z,8.30
2024-02-29T21:44:59.575Z,7.07
2024-02-29T21:47:26.704Z,8.43
2024-02-29T21:49:53.885Z,6.93
2024-02-29T21:52:20.990Z,12.27
2024-02-29T21:54:48.103Z,14.75
2024-02-29T21:57:16.194Z,6.32
2024-02-29T21:59:44.936Z,8.45
2024-02-29T22:02:12.053Z,20.25
2024-02-29T22:04:39.711Z,17.30
2024-02-29T22:07:06.814Z,7.57
2024-02-29T22:09:34.005Z,6.80
2024-02-29T22:12:01.121Z,6.70
2024-02-29T22:14:28.448Z,9.18
2024-02-29T22:16:56.093Z,9.35
2024-02-29T22:19:23.758Z,6.43
2024-02-29T22:21:51.136Z,6.10
2024-02-29T22:24:18.271Z,6.43
2024-02-29T22:26:45.384Z,6.05
2024-02-29T22:29:13.437Z,7.72
2024-02-29T22:31:43.748Z,6.50
2024-02-29T22:34:10.997Z,6.97
2024-02-29T22:36:38.198Z,6.38
2024-02-29T22:39:05.299Z,7.60
2024-02-29T22:41:37.963Z,6.72
2024-02-29T22:44:08.338Z,9.02
2024-02-29T22:46:35.405Z,11.15
2024-02-29T22:49:03.244Z,7.50
2024-02-29T22:51:30.844Z,15.40
2024-02-29T22:53:58.026Z,8.32
2024-02-29T22:56:25.085Z,7.82
2024-02-29T22:58:52.088Z,7.90
2024-02-29T23:01:19.166Z,9.50
2024-02-29T23:03:46.443Z,7.57
2024-02-29T23:06:13.809Z,8.52
2024-02-29T23:08:40.893Z,8.75
2024-02-29T23:11:08.003Z,7.25
2024-02-29T23:13:35.210Z,7.60
2024-02-29T23:16:02.271Z,8.88
2024-02-29T23:18:29.400Z,9.13
2024-02-29T23:20:57.799Z,9.68
2024-02-29T23:23:25.174Z,8.82
2024-02-29T23:25:52.545Z,8.35
2024-02-29T23:28:19.969Z,7.70
2024-02-29T23:30:47.004Z,8.80
2024-02-29T23:33:14.267Z,9.25
2024-02-29T23:35:41.316Z,9.82
2024-02-29T23:38:09.044Z,7.00
2024-02-29T23:40:36.198Z,6.68
2024-02-29T23:43:03.442Z,7.22
2024-02-29T23:45:30.689Z,6.88
2024-02-29T23:47:57.821Z,6.55
2024-02-29T23:50:25.888Z,7.22
2024-02-29T23:52:53.084Z,6.38
2024-02-29T23:55:22.077Z,7.07
2024-02-29T23:57:49.158Z,7.13
